Startpagina
METAR-TAF:

METAR-TAF

Vliegvelden :

Internationale luchthaven Harare

Harare, Zimbabwe

breedte: 17-55S, lengte: 031-08E, hoogte: 1479 m

Actueel weer

Dit bericht is 2 uur en het 7 minuten geleden gemaakt, om 10:00 UTC
Wind 6 kt uit het oostzuidoosten, variërend tussen het oostnoordoosten en het zuiden
Temperatuur 21°C
Vochtigheid 49%
Druk 1024 hPa
Zicht 10 km of meer
Gebroken wolken op 3000 ft

METAR: FVHA 201000Z 12006KT 060V190 9999 BKN030 21/10 Q1024 NOSIG

Tijdstip: 14:07 (12:07 UTC)

Verwachting

Dit bericht is 8 uur en het 7 minuten geleden gemaakt, om 04:00 UTC
Verwachting geldig van 20 om 06 UTC tot 21 om 12 UTC
Wind 7 kt uit het zuidoosten
Zicht 10 km of meer
Verspreide wolken op 1500 ft
Wijzigt naar
van 20 om 08 UTC tot 20 om 10 UTC
Verspreide wolken op 3500 ft
Van 20 om 1200 UTC
Zicht 10 km of meer
geen wolken onder 1500 m en geen cumulonimbus

TAF: FVHA 200400Z 2006/2112 13007KT 9999 SCT015 BECMG 2008/2010 SCT035 FM201200 /////KT CAVOK

Waarnemingen en weersverwachtingen van meer dan 4000 vliegvelden (METAR en TAF).

De beschikbare stations zijn de gele en rode punten op de kaart.

Ga met uw muis naar het station om de naam te zien.

Klik dan om waarnemingen en weersverwachtingen te zien.

kaart wijzigen: klik op de groene knoppen met een zwart kruis om in te zoomen, op de groene knop met een streepje om uit te zoomen of op de groene pijlen voor aangrenzende kaarten.


METAR-TAF: